Time;durP1;ratioP1;P1;durP2;ratioP2;P2;SDS_P1;SDS_P2;PMS_P1;PMS_P2;Temp;Humidity;BMP_temperature;BMP_pressure;BME280_temperature;BME280_humidity;BME280_pressure;Samples;Min_cycle;Max_cycle;Signal;HPM_P1;HPM_P2
2022/04/30 00:00:08;;;;;;;11.25;10.15;;;14.80;1.00;;;;;;5071646;28;20024;-89
2022/04/30 00:02:35;;;;;;;11.68;10.48;;;14.80;1.00;;;;;;5085770;28;20020;-89
2022/04/30 00:05:01;;;;;;;11.45;10.35;;;14.90;1.00;;;;;;5089801;28;20058;-89
2022/04/30 00:07:26;;;;;;;12.40;11.18;;;14.90;1.00;;;;;;5091731;28;20036;-89
2022/04/30 00:09:52;;;;;;;12.48;11.27;;;14.80;1.00;;;;;;5091010;28;20529;-90
2022/04/30 00:12:18;;;;;;;12.05;10.85;;;14.80;1.00;;;;;;5093336;28;20039;-89
2022/04/30 00:14:46;;;;;;;12.32;11.13;;;14.80;1.00;;;;;;5092473;28;20047;-89
2022/04/30 00:17:13;;;;;;;15.02;11.55;;;14.70;1.00;;;;;;5095709;28;20028;-89
2022/04/30 00:19:39;;;;;;;12.30;11.13;;;14.60;1.00;;;;;;5091515;28;20028;-89
2022/04/30 00:22:05;;;;;;;12.85;11.50;;;14.50;1.00;;;;;;5092811;28;20032;-89
2022/04/30 00:24:31;;;;;;;13.32;11.90;;;14.40;1.00;;;;;;5091351;28;20058;-89
2022/04/30 00:26:59;;;;;;;13.30;11.60;;;14.50;1.00;;;;;;5092980;28;20504;-89
2022/04/30 00:29:29;;;;;;;12.38;11.05;;;14.40;1.00;;;;;;5091578;28;20138;-89
2022/04/30 00:31:56;;;;;;;13.63;12.15;;;14.40;1.00;;;;;;5091619;28;20098;-90
2022/04/30 00:34:22;;;;;;;13.07;11.65;;;14.50;1.00;;;;;;5090867;28;20024;-88
2022/04/30 00:36:47;;;;;;;14.13;12.63;;;14.40;1.00;;;;;;5091095;28;20035;-89
2022/04/30 00:39:13;;;;;;;13.27;11.98;;;14.40;1.00;;;;;;5092275;28;20039;-88
2022/04/30 00:41:43;;;;;;;13.55;11.77;;;14.40;1.00;;;;;;5092480;28;20455;-87
2022/04/30 00:44:09;;;;;;;14.13;12.63;;;14.40;1.00;;;;;;5090420;28;20035;-90
2022/04/30 00:46:35;;;;;;;13.68;12.35;;;14.30;1.00;;;;;;5092124;28;20039;-90
2022/04/30 00:49:03;;;;;;;13.18;11.85;;;14.20;1.00;;;;;;5091034;28;20078;-90
2022/04/30 00:51:32;;;;;;;13.90;12.52;;;14.20;1.00;;;;;;5091660;28;20028;-90
2022/04/30 00:54:00;;;;;;;14.30;12.82;;;14.20;1.00;;;;;;5090698;28;20032;-90
2022/04/30 00:56:44;;;;;;;14.13;12.50;;;14.20;1.00;;;;;;5090687;28;20036;-90
2022/04/30 00:59:19;;;;;;;16.42;13.27;;;14.10;1.00;;;;;;5092491;28;20112;-90
2022/04/30 01:01:51;;;;;;;14.73;13.23;;;14.10;1.00;;;;;;5096065;28;20028;-90
2022/04/30 01:04:21;;;;;;;15.00;13.48;;;14.00;1.00;;;;;;5095232;28;20395;-90
2022/04/30 01:06:57;;;;;;;14.27;12.88;;;14.10;1.00;;;;;;5094652;28;20083;-89
2022/04/30 01:09:32;;;;;;;14.52;13.02;;;14.10;1.00;;;;;;5096608;28;20078;-90
2022/04/30 01:12:10;;;;;;;14.45;13.00;;;14.10;1.00;;;;;;5095617;28;20057;-90
2022/04/30 01:14:38;;;;;;;17.08;13.45;;;14.10;1.00;;;;;;5095377;28;20032;-90
2022/04/30 01:17:08;;;;;;;14.80;13.25;;;14.10;1.00;;;;;;5094462;28;20581;-91
2022/04/30 01:19:37;;;;;;;15.15;13.55;;;14.00;1.00;;;;;;5096099;28;20024;-89
2022/04/30 01:22:34;;;;;;;15.30;13.73;;;13.90;1.00;;;;;;5079484;28;20054;-89
2022/04/30 01:25:02;;;;;;;15.45;13.77;;;14.00;1.00;;;;;;5095515;28;20020;-89
2022/04/30 01:27:29;;;;;;;16.13;14.43;;;14.10;1.00;;;;;;5094266;28;20135;-89
2022/04/30 01:29:56;;;;;;;16.02;14.10;;;14.10;1.00;;;;;;5095289;28;20796;-89
2022/04/30 01:37:58;;;;;;;16.00;14.30;;;14.10;1.00;;;;;;5095071;28;20061;-89
2022/04/30 01:40:24;;;;;;;15.75;14.23;;;14.20;1.00;;;;;;5094943;28;20131;-90
2022/04/30 01:42:50;;;;;;;15.75;13.98;;;14.10;1.00;;;;;;5095122;28;20020;-87
2022/04/30 01:45:19;;;;;;;16.83;14.32;;;14.20;1.00;;;;;;5094262;28;20043;-87
2022/04/30 01:47:46;;;;;;;16.60;14.88;;;14.10;1.00;;;;;;5092518;28;20040;-87
2022/04/30 01:50:13;;;;;;;15.93;14.27;;;14.00;1.00;;;;;;5093989;28;20110;-87
2022/04/30 01:52:39;;;;;;;15.98;14.38;;;14.00;1.00;;;;;;5094700;28;20031;-87
2022/04/30 01:55:07;;;;;;;17.42;15.05;;;13.90;1.00;;;;;;5094203;28;20078;-86
2022/04/30 01:57:34;;;;;;;15.70;14.15;;;13.90;1.00;;;;;;5095072;28;20022;-87
2022/04/30 02:00:04;;;;;;;16.08;14.07;;;13.80;1.00;;;;;;5094477;28;20122;-87
2022/04/30 02:02:37;;;;;;;16.10;14.50;;;13.80;1.00;;;;;;5094661;28;20062;-87
2022/04/30 02:05:07;;;;;;;15.65;14.05;;;13.70;1.00;;;;;;5092871;28;20077;-88
2022/04/30 02:08:00;;;;;;;16.60;14.90;;;13.70;1.00;;;;;;5095318;28;20043;-87
2022/04/30 02:10:29;;;;;;;16.80;15.00;;;13.60;1.00;;;;;;5081712;28;20157;-87
2022/04/30 02:12:56;;;;;;;16.17;14.57;;;13.90;1.00;;;;;;5094230;28;20039;-87
2022/04/30 02:15:23;;;;;;;19.20;14.95;;;13.70;1.00;;;;;;5094005;28;20426;-87
2022/04/30 02:17:51;;;;;;;16.92;15.13;;;13.40;1.00;;;;;;5094809;28;20122;-88
2022/04/30 02:20:33;;;;;;;19.35;16.27;;;13.30;1.00;;;;;;5092921;28;20043;-87
2022/04/30 02:23:04;;;;;;;15.82;13.98;;;13.20;1.00;;;;;;5093972;28;20035;-87
2022/04/30 02:25:31;;;;;;;16.10;14.38;;;13.30;1.00;;;;;;5092764;28;20020;-87
2022/04/30 02:27:59;;;;;;;15.15;13.45;;;13.30;1.00;;;;;;5094120;28;20044;-86
2022/04/30 02:30:29;;;;;;;16.40;14.02;;;13.20;1.00;;;;;;5093267;28;20119;-87
2022/04/30 02:33:05;;;;;;;16.23;13.40;;;13.20;1.00;;;;;;5094369;28;20035;-88
2022/04/30 02:35:35;;;;;;;16.45;14.65;;;13.20;1.00;;;;;;5077038;28;20039;-87
2022/04/30 02:38:03;;;;;;;16.20;14.52;;;13.30;1.00;;;;;;5086575;28;20020;-86
2022/04/30 02:40:30;;;;;;;14.35;12.85;;;13.20;1.00;;;;;;5094764;28;20066;-87
2022/04/30 02:43:08;;;;;;;15.60;14.10;;;12.90;1.00;;;;;;5092975;28;20016;-87
2022/04/30 02:45:36;;;;;;;15.88;13.90;;;12.90;1.00;;;;;;5090989;28;20031;-87
2022/04/30 02:48:03;;;;;;;15.52;13.85;;;12.80;1.00;;;;;;5074063;28;20082;-87
2022/04/30 02:50:29;;;;;;;15.38;13.85;;;13.00;1.00;;;;;;5088737;28;20385;-87
2022/04/30 02:52:55;;;;;;;15.70;14.10;;;13.00;1.00;;;;;;5093706;28;20514;-87
2022/04/30 02:55:22;;;;;;;16.48;14.10;;;13.20;1.00;;;;;;5086857;28;20024;-86
2022/04/30 03:00:45;;;;;;;16.30;13.82;;;13.00;1.00;;;;;;5094790;28;20038;-87
2022/04/30 03:03:13;;;;;;;16.17;14.40;;;12.90;1.00;;;;;;5092652;28;20110;-87
2022/04/30 03:05:43;;;;;;;15.63;14.02;;;12.80;1.00;;;;;;5093516;28;20031;-86
2022/04/30 03:08:18;;;;;;;16.40;13.07;;;12.50;1.00;;;;;;5093597;28;20115;-86
2022/04/30 03:10:44;;;;;;;14.65;13.20;;;12.30;1.00;;;;;;5093678;28;20125;-86
2022/04/30 03:13:14;;;;;;;14.10;12.70;;;12.40;1.00;;;;;;5093343;28;20032;-88
2022/04/30 03:15:49;;;;;;;15.10;13.18;;;12.60;1.00;;;;;;5092235;28;20511;-87
2022/04/30 03:23:51;;;;;;;14.57;12.95;;;12.70;1.00;;;;;;5092871;28;20031;-87
2022/04/30 03:26:20;;;;;;;13.85;12.45;;;12.80;1.00;;;;;;5092854;28;20669;-88
2022/04/30 03:28:47;;;;;;;14.68;13.07;;;12.80;1.00;;;;;;5092693;28;20537;-88
2022/04/30 03:31:19;;;;;;;15.02;13.30;;;12.90;1.00;;;;;;5093517;28;20052;-89
2022/04/30 03:33:48;;;;;;;15.07;13.50;;;12.60;1.00;;;;;;5093277;28;20026;-89
2022/04/30 03:36:16;;;;;;;14.98;13.43;;;12.70;1.00;;;;;;5092024;28;20031;-88
2022/04/30 03:38:42;;;;;;;15.02;13.48;;;12.60;1.00;;;;;;5093237;28;20036;-88
2022/04/30 03:41:07;;;;;;;14.88;13.27;;;12.60;1.00;;;;;;5093008;28;20024;-88
2022/04/30 03:43:33;;;;;;;14.25;12.82;;;12.60;1.00;;;;;;5091938;28;20020;-88
2022/04/30 03:45:59;;;;;;;14.45;12.95;;;12.70;1.00;;;;;;5092211;28;20028;-88
2022/04/30 03:48:25;;;;;;;13.63;12.32;;;12.60;1.00;;;;;;5092733;28;20112;-88
2022/04/30 03:50:52;;;;;;;13.57;11.88;;;12.50;1.00;;;;;;5091902;28;20552;-88
2022/04/30 03:53:18;;;;;;;13.43;12.13;;;12.50;1.00;;;;;;5078514;28;20029;-88
2022/04/30 03:55:44;;;;;;;14.32;12.82;;;12.50;1.00;;;;;;5071806;28;20088;-88
2022/04/30 03:58:10;;;;;;;14.43;12.80;;;12.30;1.00;;;;;;5075516;28;20425;-87
2022/04/30 04:00:36;;;;;;;14.27;12.32;;;12.20;1.00;;;;;;5091546;28;20034;-88
2022/04/30 04:03:02;;;;;;;13.57;12.25;;;12.10;1.00;;;;;;5092550;28;20036;-88
2022/04/30 04:05:28;;;;;;;15.45;11.80;;;12.10;1.00;;;;;;5090922;28;20313;-88
2022/04/30 04:07:57;;;;;;;13.52;12.13;;;12.10;1.00;;;;;;5091871;28;20134;-87
2022/04/30 04:10:22;;;;;;;13.68;11.52;;;12.20;1.00;;;;;;5092032;28;20050;-88
2022/04/30 04:12:48;;;;;;;12.02;10.82;;;12.30;1.00;;;;;;5093110;28;20064;-88
2022/04/30 04:17:57;;;;;;;12.43;11.13;;;12.30;1.00;;;;;;5092982;28;20110;-88
2022/04/30 04:20:26;;;;;;;12.45;11.25;;;12.30;1.00;;;;;;5091392;28;20711;-87
2022/04/30 04:22:53;;;;;;;12.55;11.32;;;12.40;1.00;;;;;;5092612;28;20028;-88
2022/04/30 04:28:03;;;;;;;13.95;12.65;;;12.50;1.00;;;;;;5091856;28;20051;-88
2022/04/30 04:30:31;;;;;;;14.80;13.25;;;12.40;1.00;;;;;;5092121;28;20032;-86
2022/04/30 04:32:57;;;;;;;16.42;13.32;;;12.80;1.00;;;;;;5091614;28;20556;-87
2022/04/30 04:35:24;;;;;;;15.77;13.38;;;12.90;1.00;;;;;;5094181;28;20077;-88
2022/04/30 04:37:50;;;;;;;19.67;17.55;;;12.80;1.00;;;;;;5096040;28;20036;-88
2022/04/30 04:40:17;;;;;;;15.57;13.98;;;12.70;1.00;;;;;;5089903;28;20052;-87
2022/04/30 04:42:45;;;;;;;15.70;13.88;;;12.90;1.00;;;;;;5077911;28;20032;-88
2022/04/30 04:45:12;;;;;;;15.30;13.75;;;13.10;1.00;;;;;;5096448;28;20024;-88
2022/04/30 04:47:41;;;;;;;15.88;14.27;;;13.20;1.00;;;;;;5095878;28;20552;-88
2022/04/30 04:50:12;;;;;;;13.30;12.00;;;13.00;1.00;;;;;;5108932;28;20024;-88
2022/04/30 04:52:38;;;;;;;21.40;18.38;;;13.00;1.00;;;;;;5107794;28;20028;-88
2022/04/30 04:55:05;;;;;;;23.88;21.10;;;12.90;1.00;;;;;;5095480;28;20031;-88
2022/04/30 04:57:30;;;;;;;24.17;21.73;;;12.90;1.00;;;;;;5095498;28;20020;-87
2022/04/30 04:59:57;;;;;;;25.15;22.00;;;12.70;1.00;;;;;;5094865;28;20038;-88
2022/04/30 05:02:22;;;;;;;27.08;22.38;;;12.80;1.00;;;;;;5095143;28;20484;-87
2022/04/30 05:04:48;;;;;;;25.35;21.65;;;13.00;1.00;;;;;;5095340;28;20061;-88
2022/04/30 05:07:14;;;;;;;25.95;22.40;;;12.90;1.00;;;;;;5094778;28;20127;-87
2022/04/30 05:09:40;;;;;;;25.33;22.63;;;12.90;1.00;;;;;;5095465;28;20476;-88
2022/04/30 05:12:07;;;;;;;23.13;20.77;;;12.90;1.00;;;;;;5096747;28;20039;-88
2022/04/30 05:14:33;;;;;;;23.98;20.98;;;12.90;1.00;;;;;;5095995;28;20028;-88
2022/04/30 05:17:00;;;;;;;22.92;20.52;;;12.80;1.00;;;;;;5084605;28;20032;-88
2022/04/30 05:19:26;;;;;;;21.80;19.50;;;12.70;1.00;;;;;;5074594;28;20031;-87
2022/04/30 05:21:51;;;;;;;23.40;20.52;;;12.60;1.00;;;;;;5093166;28;20028;-88
2022/04/30 05:24:17;;;;;;;24.20;21.35;;;12.40;1.00;;;;;;5094890;28;20024;-88
2022/04/30 05:26:43;;;;;;;23.80;21.20;;;12.60;1.00;;;;;;5095586;28;20552;-88
2022/04/30 05:29:08;;;;;;;25.63;21.88;;;12.40;1.00;;;;;;5094419;28;20020;-88
2022/04/30 05:31:34;;;;;;;22.48;19.75;;;12.40;1.00;;;;;;5094472;28;20031;-87
2022/04/30 05:34:00;;;;;;;24.85;20.33;;;12.50;1.00;;;;;;5093975;28;20035;-88
2022/04/30 05:36:25;;;;;;;23.42;19.48;;;12.50;1.00;;;;;;5095557;28;20036;-88
2022/04/30 05:38:51;;;;;;;24.08;19.63;;;12.50;1.00;;;;;;5094318;28;20024;-88
2022/04/30 05:41:17;;;;;;;20.98;18.70;;;12.80;1.00;;;;;;5094330;28;20084;-88
2022/04/30 05:43:43;;;;;;;22.40;18.60;;;12.80;1.00;;;;;;5095359;28;20088;-88
2022/04/30 05:46:09;;;;;;;22.83;20.02;;;12.60;1.00;;;;;;5093880;28;20492;-88
2022/04/30 05:48:35;;;;;;;23.85;20.73;;;12.60;1.00;;;;;;5093855;28;20065;-88
2022/04/30 05:51:02;;;;;;;23.10;19.67;;;12.60;1.00;;;;;;5095439;28;20128;-88
2022/04/30 05:53:28;;;;;;;22.63;18.80;;;12.90;1.00;;;;;;5095175;28;20028;-89
2022/04/30 05:55:54;;;;;;;20.85;18.65;;;12.80;1.00;;;;;;5095485;28;20028;-92
2022/04/30 05:58:19;;;;;;;21.33;19.00;;;12.90;1.00;;;;;;5095428;28;20039;-92
2022/04/30 06:00:46;;;;;;;21.52;19.25;;;13.00;1.00;;;;;;5096525;28;20020;-90
2022/04/30 06:03:12;;;;;;;25.05;19.48;;;13.20;1.00;;;;;;5100747;28;20033;-89
2022/04/30 06:05:38;;;;;;;21.95;19.58;;;13.20;1.00;;;;;;5098672;28;20024;-90
2022/04/30 06:08:07;;;;;;;23.80;20.63;;;13.10;1.00;;;;;;5098811;28;20028;-90
2022/04/30 06:10:33;;;;;;;23.98;20.75;;;13.20;1.00;;;;;;5094700;28;20484;-90
2022/04/30 06:12:59;;;;;;;28.98;24.83;;;13.50;1.00;;;;;;5093729;28;20058;-90
2022/04/30 06:15:25;;;;;;;22.70;19.30;;;13.90;1.00;;;;;;5094595;28;20027;-87
2022/04/30 06:17:51;;;;;;;22.63;19.63;;;13.80;1.00;;;;;;5093768;28;20062;-87
2022/04/30 06:20:17;;;;;;;21.23;18.77;;;13.60;1.00;;;;;;5092458;28;20039;-87
2022/04/30 06:22:43;;;;;;;21.33;18.60;;;13.60;1.00;;;;;;5093752;28;20065;-86
2022/04/30 06:25:10;;;;;;;21.05;18.42;;;13.60;1.00;;;;;;5093766;28;20036;-86
2022/04/30 06:27:35;;;;;;;19.95;17.85;;;13.70;1.00;;;;;;5092001;28;20055;-86
2022/04/30 06:30:02;;;;;;;20.45;18.30;;;13.60;1.00;;;;;;5093243;28;20122;-96
2022/04/30 06:32:28;;;;;;;20.23;16.58;;;13.50;1.00;;;;;;5101488;28;20028;-85
2022/04/30 06:34:54;;;;;;;21.33;18.92;;;13.50;1.00;;;;;;5093984;28;20427;-85
2022/04/30 06:37:20;;;;;;;19.45;17.42;;;13.50;1.00;;;;;;5093284;28;20020;-87
2022/04/30 06:39:45;;;;;;;19.27;16.75;;;13.50;1.00;;;;;;5093413;28;20047;-88
2022/04/30 06:42:11;;;;;;;19.38;16.50;;;13.40;1.00;;;;;;5094331;28;20023;-88
2022/04/30 06:44:37;;;;;;;19.67;17.55;;;13.50;1.00;;;;;;5092460;28;20522;-87
2022/04/30 06:47:03;;;;;;;19.85;17.80;;;13.60;1.00;;;;;;5092455;28;20115;-88
2022/04/30 06:49:29;;;;;;;20.10;18.10;;;13.60;1.00;;;;;;5093669;28;20016;-87
2022/04/30 06:51:54;;;;;;;20.70;17.17;;;13.50;1.00;;;;;;5093771;28;20058;-88
2022/04/30 06:57:17;;;;;;;20.20;18.10;;;13.60;1.00;;;;;;5092868;28;20039;-88
2022/04/30 06:59:45;;;;;;;20.58;18.52;;;13.80;1.00;;;;;;5093215;28;20093;-87
2022/04/30 07:02:12;;;;;;;20.33;18.30;;;13.80;1.00;;;;;;5092073;28;20078;-86
2022/04/30 07:04:41;;;;;;;21.17;18.92;;;13.60;1.00;;;;;;5092128;28;20396;-88
2022/04/30 07:07:08;;;;;;;20.20;18.08;;;13.80;1.00;;;;;;5093223;28;20036;-88
2022/04/30 07:09:34;;;;;;;22.13;18.40;;;13.70;1.00;;;;;;5093501;28;20107;-87
2022/04/30 07:12:03;;;;;;;20.15;18.08;;;13.60;1.00;;;;;;5093191;28;20127;-87
2022/04/30 07:14:28;;;;;;;20.45;18.48;;;13.50;1.00;;;;;;5091898;28;20016;-88
2022/04/30 07:16:54;;;;;;;20.92;18.73;;;13.60;1.00;;;;;;5092813;28;20024;-88
2022/04/30 07:19:19;;;;;;;18.73;16.92;;;13.70;1.00;;;;;;5093112;28;20031;-88
2022/04/30 07:21:45;;;;;;;19.85;17.80;;;13.70;1.00;;;;;;5093018;28;20495;-88
2022/04/30 07:24:11;;;;;;;19.45;16.23;;;13.60;1.00;;;;;;5092017;28;20035;-87
2022/04/30 07:26:36;;;;;;;20.20;18.10;;;13.60;1.00;;;;;;5091225;28;20044;-88
2022/04/30 07:29:02;;;;;;;20.63;18.48;;;13.80;1.00;;;;;;5092638;28;20451;-88
2022/04/30 07:31:28;;;;;;;19.15;17.20;;;13.80;1.00;;;;;;5092897;28;20052;-87
2022/04/30 07:33:54;;;;;;;19.38;16.73;;;13.90;1.00;;;;;;5091732;28;20039;-88
2022/04/30 07:36:20;;;;;;;17.63;14.63;;;14.10;1.00;;;;;;5093179;28;20361;-88
2022/04/30 07:38:46;;;;;;;16.55;14.77;;;14.20;1.00;;;;;;5091093;28;20126;-88
2022/04/30 07:41:11;;;;;;;16.55;14.10;;;14.20;1.00;;;;;;5092387;28;20048;-87
2022/04/30 07:43:37;;;;;;;13.95;12.55;;;14.40;1.00;;;;;;5092640;28;20062;-87
2022/04/30 07:46:02;;;;;;;10.85;8.63;;;14.50;1.00;;;;;;5076196;28;20024;-88
2022/04/30 07:48:28;;;;;;;8.98;8.07;;;14.40;1.00;;;;;;5093124;28;20476;-88
2022/04/30 07:50:57;;;;;;;7.07;6.43;;;14.30;1.00;;;;;;5091253;28;20028;-87
2022/04/30 07:53:24;;;;;;;8.32;5.65;;;14.30;1.00;;;;;;5092091;28;20373;-87
2022/04/30 07:55:52;;;;;;;8.05;6.20;;;14.20;1.00;;;;;;5092278;28;20024;-88
2022/04/30 07:58:18;;;;;;;8.60;7.00;;;14.20;1.00;;;;;;5091116;28;20381;-88
2022/04/30 08:00:44;;;;;;;8.73;6.40;;;14.20;1.00;;;;;;5092256;28;20035;-87
2022/04/30 08:03:10;;;;;;;7.85;6.88;;;14.30;1.00;;;;;;5093051;28;20031;-88
2022/04/30 08:05:35;;;;;;;8.52;7.50;;;14.20;1.00;;;;;;5090767;28;20024;-88
2022/04/30 08:08:01;;;;;;;7.95;7.15;;;14.20;1.00;;;;;;5091590;28;20028;-88
2022/04/30 08:10:27;;;;;;;10.43;7.82;;;14.20;1.00;;;;;;5092305;28;20012;-88
2022/04/30 08:12:56;;;;;;;9.10;8.18;;;14.20;1.00;;;;;;5091040;28;20145;-88
2022/04/30 08:15:23;;;;;;;9.00;8.20;;;14.20;1.00;;;;;;5092634;28;20559;-88
2022/04/30 08:17:49;;;;;;;9.70;8.55;;;14.30;1.00;;;;;;5090499;28;20028;-87
2022/04/30 08:20:14;;;;;;;8.68;7.75;;;14.50;1.00;;;;;;5090759;28;20124;-87
2022/04/30 08:22:40;;;;;;;8.50;7.60;;;14.50;1.00;;;;;;5090752;28;20016;-88
2022/04/30 08:25:06;;;;;;;8.48;7.65;;;14.60;1.00;;;;;;5090831;28;20027;-87
2022/04/30 08:27:32;;;;;;;9.27;8.38;;;14.50;1.00;;;;;;5092608;28;20052;-87
2022/04/30 08:29:58;;;;;;;10.35;8.10;;;14.50;1.00;;;;;;5091655;28;20028;-88
2022/04/30 08:32:25;;;;;;;10.95;8.82;;;14.50;1.00;;;;;;5091669;28;20032;-87
2022/04/30 08:34:51;;;;;;;9.35;8.45;;;14.60;1.00;;;;;;5091939;28;20129;-88
2022/04/30 08:37:17;;;;;;;9.15;8.35;;;14.80;1.00;;;;;;5090491;28;20520;-87
2022/04/30 08:39:43;;;;;;;9.38;8.45;;;14.80;1.00;;;;;;5090744;28;20024;-88
2022/04/30 08:42:09;;;;;;;9.25;8.25;;;14.70;1.00;;;;;;5092373;28;20028;-88
2022/04/30 08:44:38;;;;;;;8.85;7.47;;;14.70;1.00;;;;;;5091910;28;20471;-87
2022/04/30 08:47:05;;;;;;;8.30;7.50;;;15.00;1.00;;;;;;5090151;28;20496;-87
2022/04/30 08:49:32;;;;;;;8.45;7.65;;;15.00;1.00;;;;;;5090834;28;20028;-88
2022/04/30 08:51:57;;;;;;;8.90;8.10;;;15.20;1.00;;;;;;5091319;28;20218;-88
2022/04/30 08:54:24;;;;;;;8.95;8.05;;;15.40;1.00;;;;;;5090901;28;20115;-88
2022/04/30 08:56:56;;;;;;;8.75;7.93;;;15.20;1.00;;;;;;5091339;28;20392;-88
2022/04/30 08:59:23;;;;;;;8.65;7.85;;;15.20;1.00;;;;;;5090197;28;20032;-87
2022/04/30 09:01:51;;;;;;;9.25;8.35;;;15.20;1.00;;;;;;5091453;28;20016;-87
2022/04/30 09:04:18;;;;;;;8.60;7.68;;;15.20;1.00;;;;;;5090411;28;20036;-88
2022/04/30 09:06:52;;;;;;;9.93;8.40;;;15.40;1.00;;;;;;5089928;28;20514;-87
2022/04/30 09:09:29;;;;;;;9.75;8.85;;;15.40;1.00;;;;;;5090449;28;20515;-87
2022/04/30 09:12:09;;;;;;;10.27;8.13;;;15.50;1.00;;;;;;5090120;28;20035;-87
2022/04/30 09:14:37;;;;;;;9.15;6.72;;;15.50;1.00;;;;;;5089504;28;20024;-87
2022/04/30 09:17:05;;;;;;;8.05;7.20;;;15.50;1.00;;;;;;5091354;28;20031;-87
2022/04/30 09:19:33;;;;;;;7.38;6.70;;;15.60;1.00;;;;;;5089805;28;20044;-87
2022/04/30 09:22:00;;;;;;;7.78;6.97;;;15.80;1.00;;;;;;5094795;28;20031;-88
2022/04/30 09:24:26;;;;;;;8.80;7.28;;;16.00;1.00;;;;;;5095571;28;20051;-87
2022/04/30 09:26:52;;;;;;;9.02;8.00;;;16.10;1.00;;;;;;5094536;28;20144;-88
2022/04/30 09:29:27;;;;;;;8.48;7.68;;;16.00;1.00;;;;;;5094630;28;20087;-88
2022/04/30 09:31:53;;;;;;;7.68;6.68;;;16.20;1.00;;;;;;5093727;28;20020;-87
2022/04/30 09:39:50;;;;;;;7.05;5.25;;;16.60;1.00;;;;;;5093133;28;20534;-87
2022/04/30 09:42:17;;;;;;;8.60;5.97;;;16.70;1.00;;;;;;5092148;28;20105;-87
2022/04/30 09:44:43;;;;;;;8.02;5.43;;;16.70;1.00;;;;;;5093160;28;20442;-87
2022/04/30 09:47:09;;;;;;;7.05;5.45;;;16.60;1.00;;;;;;5093248;28;20531;-87
2022/04/30 09:55:05;;;;;;;6.65;5.32;;;16.80;1.00;;;;;;5078737;28;20429;-88
2022/04/30 09:57:34;;;;;;;6.50;4.95;;;16.90;1.00;;;;;;5090658;28;20031;-88
2022/04/30 10:00:00;;;;;;;8.00;5.05;;;16.90;1.00;;;;;;5093193;28;20564;-87
2022/04/30 10:02:30;;;;;;;6.47;5.40;;;17.10;1.00;;;;;;5094211;28;20494;-88
2022/04/30 10:04:57;;;;;;;7.43;5.05;;;17.10;1.00;;;;;;5093936;28;20412;-88
2022/04/30 10:07:25;;;;;;;8.20;5.18;;;17.20;1.00;;;;;;5094361;28;20120;-87
2022/04/30 10:09:58;;;;;;;7.78;5.30;;;17.40;1.00;;;;;;5093353;28;20070;-87
2022/04/30 10:12:35;;;;;;;7.43;5.43;;;17.50;1.00;;;;;;5094733;28;20069;-88
2022/04/30 10:15:25;;;;;;;6.22;5.22;;;17.50;1.00;;;;;;5092798;28;20032;-86
2022/04/30 10:17:54;;;;;;;6.38;5.78;;;17.50;1.00;;;;;;5093605;28;20063;-87
2022/04/30 10:20:38;;;;;;;6.30;5.70;;;17.50;1.00;;;;;;5093924;28;20024;-88
2022/04/30 10:23:05;;;;;;;9.05;6.10;;;17.60;1.00;;;;;;5094003;28;20039;-87
2022/04/30 10:25:44;;;;;;;7.93;7.07;;;17.70;1.00;;;;;;5093837;28;20032;-88
2022/04/30 10:28:18;;;;;;;8.48;6.00;;;17.80;1.00;;;;;;5078417;28;20143;-87
2022/04/30 10:30:57;;;;;;;7.70;6.40;;;17.90;1.00;;;;;;5093721;28;20032;-87
2022/04/30 10:33:23;;;;;;;7.30;6.30;;;18.10;1.00;;;;;;5091985;28;20032;-87
2022/04/30 10:35:49;;;;;;;6.70;5.68;;;18.30;1.00;;;;;;5092257;28;20024;-87
2022/04/30 10:38:20;;;;;;;6.40;5.80;;;18.60;1.00;;;;;;5093760;28;20038;-87
2022/04/30 10:40:47;;;;;;;6.40;5.60;;;18.40;1.00;;;;;;5093647;28;20078;-87
2022/04/30 10:43:42;;;;;;;6.68;5.65;;;18.60;1.00;;;;;;5093698;28;20038;-88
2022/04/30 10:46:22;;;;;;;6.88;5.47;;;18.60;1.00;;;;;;5076736;28;20024;-87
2022/04/30 10:48:48;;;;;;;5.45;4.90;;;19.00;1.00;;;;;;5093931;28;20036;-86
2022/04/30 10:51:16;;;;;;;6.47;4.22;;;19.10;1.00;;;;;;5093826;28;20082;-87
2022/04/30 10:53:44;;;;;;;5.95;5.10;;;19.10;1.00;;;;;;5092027;28;20118;-87
2022/04/30 10:56:10;;;;;;;5.10;4.07;;;19.30;1.00;;;;;;5091779;28;20020;-87
2022/04/30 10:58:38;;;;;;;4.63;4.22;;;19.80;1.00;;;;;;5091936;28;20066;-87
2022/04/30 11:01:15;;;;;;;4.93;4.07;;;20.00;1.00;;;;;;5075535;28;20024;-87
2022/04/30 11:03:44;;;;;;;6.32;4.65;;;20.50;1.00;;;;;;5090171;28;20096;-88
2022/04/30 11:06:12;;;;;;;6.20;4.57;;;20.70;1.00;;;;;;5091456;28;20024;-87
2022/04/30 11:08:38;;;;;;;5.10;4.60;;;20.90;1.00;;;;;;5091553;28;20038;-87
2022/04/30 11:11:03;;;;;;;6.65;4.65;;;21.60;1.00;;;;;;5092614;28;20028;-88
2022/04/30 11:13:29;;;;;;;5.40;4.90;;;22.10;1.00;;;;;;5091524;28;20044;-88
2022/04/30 11:15:58;;;;;;;5.47;4.32;;;22.30;1.00;;;;;;5092367;28;20064;-87
2022/04/30 11:18:24;;;;;;;6.60;4.85;;;22.50;1.00;;;;;;5093292;28;20023;-88
2022/04/30 11:20:58;;;;;;;5.43;4.90;;;22.70;1.00;;;;;;5092492;28;20540;-88
2022/04/30 11:23:24;;;;;;;5.97;4.30;;;22.60;1.00;;;;;;5092580;28;20032;-88
2022/04/30 11:25:50;;;;;;;5.15;3.90;;;23.40;1.00;;;;;;5091171;28;20090;-87
2022/04/30 11:28:15;;;;;;;4.53;3.90;;;23.40;1.00;;;;;;5092713;28;20419;-87
2022/04/30 11:30:43;;;;;;;5.05;4.30;;;23.70;1.00;;;;;;5091058;28;20102;-88
2022/04/30 11:33:10;;;;;;;4.63;4.00;;;24.50;1.00;;;;;;5090841;28;20032;-88
2022/04/30 11:35:36;;;;;;;4.93;4.25;;;24.80;1.00;;;;;;5092301;28;20024;-88
2022/04/30 11:38:03;;;;;;;4.95;3.92;;;24.90;1.00;;;;;;5092343;28;20028;-88
2022/04/30 11:40:29;;;;;;;5.53;4.20;;;25.70;1.00;;;;;;5092478;28;20085;-88
2022/04/30 11:42:59;;;;;;;6.05;4.50;;;26.00;1.00;;;;;;5091873;28;20032;-88
2022/04/30 11:45:28;;;;;;;5.43;4.35;;;25.00;1.00;;;;;;5092507;28;20028;-88
2022/04/30 11:48:01;;;;;;;6.63;4.72;;;25.20;1.00;;;;;;5092116;28;20036;-88
2022/04/30 11:50:27;;;;;;;4.65;3.78;;;25.50;1.00;;;;;;5091965;28;20527;-88
2022/04/30 11:52:54;;;;;;;4.70;4.10;;;25.70;1.00;;;;;;5092120;28;20051;-88
2022/04/30 11:55:20;;;;;;;7.30;4.47;;;25.90;1.00;;;;;;5090731;28;20028;-87
2022/04/30 11:57:47;;;;;;;4.93;4.35;;;25.10;1.00;;;;;;5092179;28;20035;-88
2022/04/30 12:00:15;;;;;;;4.18;3.75;;;25.50;1.00;;;;;;5092225;28;20074;-88
2022/04/30 12:02:42;;;;;;;5.68;4.80;;;26.40;1.00;;;;;;5091697;28;20028;-88
2022/04/30 12:05:09;;;;;;;5.00;4.50;;;26.00;1.00;;;;;;5091928;28;20398;-87
2022/04/30 12:07:40;;;;;;;4.63;4.00;;;26.20;1.00;;;;;;5091997;28;20115;-87
2022/04/30 12:10:17;;;;;;;5.70;4.05;;;26.60;1.00;;;;;;5076159;28;20057;-88
2022/04/30 12:12:43;;;;;;;4.05;3.75;;;27.10;1.00;;;;;;5089298;28;20024;-88
2022/04/30 12:15:22;;;;;;;4.55;4.13;;;26.90;1.00;;;;;;5091987;28;20031;-88
2022/04/30 12:24:40;;;;;;;4.32;4.00;;;27.50;1.00;;;;;;5091689;28;20031;-88
2022/04/30 12:26:13;;;;;;;4.85;4.35;;;28.00;1.00;;;;;;5091494;28;20399;-88
2022/04/30 12:28:53;;;;;;;4.18;3.50;;;27.90;1.00;;;;;;5091300;28;20051;-88
2022/04/30 12:31:19;;;;;;;4.80;3.97;;;27.70;1.00;;;;;;5090404;28;20032;-88
2022/04/30 12:33:48;;;;;;;5.13;4.00;;;28.20;1.00;;;;;;5091703;28;20111;-88
2022/04/30 12:36:14;;;;;;;5.93;4.00;;;28.10;1.00;;;;;;5090838;28;20435;-88
2022/04/30 12:38:40;;;;;;;4.25;3.90;;;28.50;1.00;;;;;;5090250;28;20028;-88
2022/04/30 12:41:08;;;;;;;5.82;4.05;;;28.10;1.00;;;;;;5090240;28;20400;-88
2022/04/30 12:43:36;;;;;;;4.28;3.55;;;27.60;1.00;;;;;;5091533;28;20412;-88
2022/04/30 12:46:03;;;;;;;5.97;4.05;;;27.60;1.00;;;;;;5091604;28;20024;-88
2022/04/30 12:48:32;;;;;;;4.78;4.38;;;27.40;1.00;;;;;;5092090;28;20031;-87
2022/04/30 12:50:57;;;;;;;4.78;4.15;;;27.50;1.00;;;;;;5091436;28;20043;-88
2022/04/30 12:53:23;;;;;;;4.40;4.00;;;28.00;1.00;;;;;;5091416;28;20410;-88
2022/04/30 12:55:51;;;;;;;7.28;3.90;;;28.50;1.00;;;;;;5092900;28;20484;-88
2022/04/30 12:58:16;;;;;;;3.83;3.50;;;28.10;1.00;;;;;;5095201;28;20035;-88
2022/04/30 13:00:44;;;;;;;4.95;3.53;;;28.80;1.00;;;;;;5095636;28;20032;-88
2022/04/30 13:03:10;;;;;;;4.03;3.63;;;27.40;1.00;;;;;;5095041;28;20024;-88
2022/04/30 13:05:36;;;;;;;6.10;3.95;;;26.90;1.00;;;;;;5095308;28;20036;-88
2022/04/30 13:08:02;;;;;;;5.07;3.72;;;27.10;1.00;;;;;;5094965;28;20400;-88
2022/04/30 13:13:31;;;;;;;4.68;3.40;;;27.70;1.00;;;;;;5079840;28;20046;-88
2022/04/30 13:15:57;;;;;;;4.90;3.58;;;27.60;1.00;;;;;;5093879;28;20035;-88
2022/04/30 13:18:23;;;;;;;5.78;3.70;;;28.00;1.00;;;;;;5095700;28;20020;-88
2022/04/30 13:20:49;;;;;;;4.53;3.00;;;27.30;1.00;;;;;;5093669;28;20031;-88
2022/04/30 13:23:14;;;;;;;5.20;3.33;;;27.60;1.00;;;;;;5095091;28;20547;-88
2022/04/30 13:25:40;;;;;;;5.15;3.47;;;27.40;1.00;;;;;;5094917;28;20507;-88
2022/04/30 13:28:06;;;;;;;4.40;3.20;;;27.20;1.00;;;;;;5094475;28;20051;-88
2022/04/30 13:30:32;;;;;;;4.38;3.25;;;27.20;1.00;;;;;;5090977;28;20028;-87